Time;durP1;ratioP1;P1;durP2;ratioP2;P2;SDS_P1;SDS_P2;PMS_P1;PMS_P2;Temp;Humidity;BMP_temperature;BMP_pressure;BME280_temperature;BME280_humidity;BME280_pressure;Samples;Min_cycle;Max_cycle;Signal;HPM_P1;HPM_P2
2022/12/15 00:39:33;;;;;;;;;;;18.00;57.90;;;;;;5038229;28;888;-69
2022/12/15 00:41:58;;;;;;;;;;;18.00;57.90;;;;;;5040721;28;1286;-70
2022/12/15 00:44:24;;;;;;;;;;;18.00;57.90;;;;;;5040007;28;1298;-70
2022/12/15 00:46:55;;;;;;;;;;;18.10;57.90;;;;;;5046577;28;1949;-69
2022/12/15 01:22:19;;;;;;;;;;;18.10;57.80;;;;;;5041156;28;804;-69
2022/12/15 01:24:44;;;;;;;;;;;18.10;57.90;;;;;;5040835;28;851;-69
2022/12/15 01:27:10;;;;;;;;;;;18.10;58.40;;;;;;5041780;28;1963;-69
2022/12/15 01:29:35;;;;;;;;;;;18.00;57.70;;;;;;5056202;28;1684;-69
2022/12/15 01:32:01;;;;;;;;;;;18.10;57.80;;;;;;5034255;28;1388;-70
2022/12/15 01:34:26;;;;;;;;;;;18.10;57.90;;;;;;5039022;28;1457;-70
2022/12/15 01:36:52;;;;;;;;;;;18.10;57.80;;;;;;5053653;28;1423;-70
2022/12/15 01:39:17;;;;;;;;;;;18.00;57.80;;;;;;5040287;28;1430;-70
2022/12/15 01:41:43;;;;;;;;;;;18.10;57.90;;;;;;5035409;28;1585;-70
2022/12/15 01:44:15;;;;;;;;;;;18.00;57.80;;;;;;5039402;28;1239;-69
2022/12/15 01:46:40;;;;;;;;;;;18.00;57.80;;;;;;5038509;28;1922;-70
2022/12/15 01:49:25;;;;;;;;;;;18.10;57.80;;;;;;5036564;28;1343;-71
2022/12/15 01:51:52;;;;;;;;;;;18.10;57.90;;;;;;5042225;28;1582;-71
2022/12/15 01:54:17;;;;;;;;;;;18.10;57.80;;;;;;5042175;28;1409;-69
2022/12/15 01:56:44;;;;;;;;;;;18.10;57.90;;;;;;5040314;28;1611;-71
2022/12/15 01:59:10;;;;;;;;;;;18.10;57.80;;;;;;5038100;28;1293;-71
2022/12/15 02:01:36;;;;;;;;;;;18.10;57.90;;;;;;5039832;28;1298;-68
2022/12/15 02:04:02;;;;;;;;;;;18.10;57.80;;;;;;5039961;28;1027;-68
2022/12/15 02:06:27;;;;;;;;;;;18.00;57.80;;;;;;5045922;28;1953;-67
2022/12/15 02:08:53;;;;;;;;;;;18.00;57.80;;;;;;5043605;28;805;-68
2022/12/15 02:11:33;;;;;;;;;;;18.10;57.80;;;;;;5039628;28;1370;-67
2022/12/15 02:13:59;;;;;;;;;;;18.00;57.80;;;;;;5044543;28;1402;-68
2022/12/15 02:16:43;;;;;;;;;;;18.10;57.90;;;;;;5044348;28;1249;-68
2022/12/15 02:19:27;;;;;;;;;;;18.00;57.80;;;;;;5042764;28;873;-68
2022/12/15 02:21:58;;;;;;;;;;;18.00;57.80;;;;;;5042977;28;1201;-68
2022/12/15 02:24:33;;;;;;;;;;;18.00;57.80;;;;;;5042891;28;963;-68
2022/12/15 02:26:58;;;;;;;;;;;18.00;57.80;;;;;;5044272;28;1951;-68
2022/12/15 02:29:24;;;;;;;;;;;18.10;57.90;;;;;;5041068;28;808;-68
2022/12/15 02:31:59;;;;;;;;;;;18.10;57.90;;;;;;5045555;28;1258;-68
2022/12/15 02:34:40;;;;;;;;;;;18.00;57.80;;;;;;5042912;28;772;-68
2022/12/15 02:37:13;;;;;;;;;;;18.00;57.80;;;;;;5045113;28;854;-68
2022/12/15 02:39:38;;;;;;;;;;;18.00;57.80;;;;;;5039484;28;919;-68
2022/12/15 02:42:04;;;;;;;;;;;18.00;57.80;;;;;;5042231;28;1291;-70
2022/12/15 02:44:42;;;;;;;;;;;18.00;57.80;;;;;;5041051;28;1302;-70
2022/12/15 02:47:08;;;;;;;;;;;18.00;57.80;;;;;;5040403;28;1961;-70
2022/12/15 02:49:53;;;;;;;;;;;18.00;57.80;;;;;;5044155;28;852;-70
2022/12/15 02:52:37;;;;;;;;;;;18.00;57.80;;;;;;5040698;28;879;-70
2022/12/15 02:55:11;;;;;;;;;;;18.10;57.90;;;;;;5043260;28;891;-70
2022/12/15 02:57:45;;;;;;;;;;;18.10;57.90;;;;;;5043616;28;903;-69
2022/12/15 03:00:11;;;;;;;;;;;18.00;57.80;;;;;;5040348;28;1263;-70
2022/12/15 03:02:37;;;;;;;;;;;18.00;57.80;;;;;;5039534;28;1018;-70
2022/12/15 03:05:03;;;;;;;;;;;18.00;57.80;;;;;;5041258;28;1906;-70
2022/12/15 03:07:28;;;;;;;;;;;18.00;57.80;;;;;;5042737;28;804;-69
2022/12/15 03:09:55;;;;;;;;;;;18.00;57.80;;;;;;5041879;28;1324;-69
2022/12/15 03:12:20;;;;;;;;;;;18.00;57.80;;;;;;5041860;28;860;-69
2022/12/15 03:14:46;;;;;;;;;;;18.10;57.80;;;;;;5043598;28;1751;-69
2022/12/15 03:17:11;;;;;;;;;;;18.10;57.90;;;;;;5042654;28;1324;-69
2022/12/15 03:19:36;;;;;;;;;;;18.10;57.80;;;;;;5043108;28;931;-69
2022/12/15 03:22:03;;;;;;;;;;;18.00;57.70;;;;;;5042043;28;1271;-69
2022/12/15 03:24:28;;;;;;;;;;;18.00;57.70;;;;;;5050218;28;843;-70
2022/12/15 03:26:54;;;;;;;;;;;18.00;57.80;;;;;;5047917;28;1906;-69
2022/12/15 03:29:19;;;;;;;;;;;18.10;57.80;;;;;;5042695;28;867;-69
2022/12/15 03:31:45;;;;;;;;;;;18.10;57.80;;;;;;5045799;28;1237;-69
2022/12/15 03:34:10;;;;;;;;;;;18.10;57.90;;;;;;5042960;28;952;-69
2022/12/15 03:36:36;;;;;;;;;;;18.10;58.40;;;;;;5042860;28;1826;-70
2022/12/15 03:39:01;;;;;;;;;;;18.00;58.30;;;;;;5043338;28;800;-69
2022/12/15 03:41:27;;;;;;;;;;;18.10;57.80;;;;;;5041736;28;1275;-69
2022/12/15 03:43:52;;;;;;;;;;;18.00;57.70;;;;;;5045748;28;883;-69
2022/12/15 03:46:18;;;;;;;;;;;18.10;57.80;;;;;;5037136;28;1910;-70
2022/12/15 03:48:43;;;;;;;;;;;18.10;57.80;;;;;;5038821;28;923;-71
2022/12/15 03:51:09;;;;;;;;;;;18.00;57.70;;;;;;5042043;28;1291;-71
2022/12/15 03:53:34;;;;;;;;;;;18.00;57.70;;;;;;5043879;28;916;-71
2022/12/15 03:56:00;;;;;;;;;;;18.00;57.70;;;;;;5043298;28;998;-70
2022/12/15 03:58:25;;;;;;;;;;;18.10;57.80;;;;;;5036049;28;859;-70
2022/12/15 04:00:51;;;;;;;;;;;18.10;57.80;;;;;;5040859;28;1352;-71
2022/12/15 04:03:16;;;;;;;;;;;18.10;57.80;;;;;;5039389;28;888;-70
2022/12/15 04:05:42;;;;;;;;;;;18.10;57.90;;;;;;5039942;28;1910;-70
2022/12/15 04:08:07;;;;;;;;;;;18.00;57.70;;;;;;5039675;28;816;-69
2022/12/15 04:10:33;;;;;;;;;;;18.10;57.70;;;;;;5041102;28;1291;-70
2022/12/15 04:12:59;;;;;;;;;;;18.10;57.70;;;;;;5041289;28;1345;-70
2022/12/15 04:15:24;;;;;;;;;;;18.10;57.70;;;;;;5040591;28;1258;-70
2022/12/15 04:17:50;;;;;;;;;;;18.10;57.70;;;;;;5045304;28;1053;-70
2022/12/15 04:20:15;;;;;;;;;;;18.10;57.70;;;;;;5042806;28;1355;-70
2022/12/15 04:22:42;;;;;;;;;;;18.10;57.70;;;;;;5042004;28;868;-70
2022/12/15 05:33:38;;;;;;;;;;;18.10;57.60;;;;;;5042131;28;776;-69
2022/12/15 05:36:04;;;;;;;;;;;18.10;57.50;;;;;;5041514;28;836;-70
2022/12/15 05:38:29;;;;;;;;;;;18.10;57.50;;;;;;5021490;28;1531;-70
2022/12/15 05:40:58;;;;;;;;;;;18.10;57.60;;;;;;5043367;28;1272;-70
2022/12/15 05:43:23;;;;;;;;;;;18.10;57.50;;;;;;5045313;28;828;-70
2022/12/15 05:45:49;;;;;;;;;;;18.10;57.50;;;;;;5042290;28;1918;-70
2022/12/15 05:48:14;;;;;;;;;;;18.10;57.50;;;;;;5044857;28;4318;-71
2022/12/15 05:50:40;;;;;;;;;;;18.20;57.50;;;;;;5064935;28;2012;-71
2022/12/15 05:53:05;;;;;;;;;;;18.20;57.50;;;;;;5063366;28;1254;-74
2022/12/15 05:55:30;;;;;;;;;;;18.20;57.40;;;;;;5059817;28;1422;-72
2022/12/15 05:57:56;;;;;;;;;;;18.20;57.40;;;;;;5064169;28;1022;-72
2022/12/15 06:00:21;;;;;;;;;;;18.20;57.40;;;;;;5061613;28;1253;-69
2022/12/15 06:02:47;;;;;;;;;;;18.20;57.40;;;;;;5060258;28;808;-70
2022/12/15 06:05:12;;;;;;;;;;;18.20;57.30;;;;;;5066106;28;1902;-70
2022/12/15 06:07:38;;;;;;;;;;;18.20;57.30;;;;;;5062897;28;997;-71
2022/12/15 06:10:04;;;;;;;;;;;18.20;57.30;;;;;;5061791;28;1181;-72
2022/12/15 06:12:29;;;;;;;;;;;18.20;57.30;;;;;;5063683;28;999;-69
2022/12/15 06:14:55;;;;;;;;;;;18.20;57.30;;;;;;5063527;28;1257;-72
2022/12/15 06:17:20;;;;;;;;;;;18.20;57.20;;;;;;5064299;28;1251;-71
2022/12/15 06:19:45;;;;;;;;;;;18.20;57.20;;;;;;5065905;28;923;-71
2022/12/15 06:22:11;;;;;;;;;;;18.20;57.80;;;;;;5067063;28;1356;-72
2022/12/15 06:24:36;;;;;;;;;;;18.20;57.20;;;;;;5063041;28;880;-71
2022/12/15 06:27:02;;;;;;;;;;;18.20;57.20;;;;;;5061890;28;1967;-72
2022/12/15 06:29:27;;;;;;;;;;;18.20;57.70;;;;;;5067055;28;835;-74
2022/12/15 06:31:53;;;;;;;;;;;18.20;57.10;;;;;;5065941;28;1341;-72
2022/12/15 06:34:18;;;;;;;;;;;18.20;57.20;;;;;;5062527;28;921;-71
2022/12/15 06:36:44;;;;;;;;;;;18.20;57.20;;;;;;5059844;28;1006;-71
2022/12/15 06:39:10;;;;;;;;;;;18.20;57.10;;;;;;5064157;28;855;-70
2022/12/15 06:41:36;;;;;;;;;;;18.20;57.10;;;;;;5068209;28;1217;-71
2022/12/15 06:44:01;;;;;;;;;;;18.20;57.20;;;;;;5067165;28;1167;-70
2022/12/15 06:46:27;;;;;;;;;;;18.20;57.20;;;;;;5062058;28;1967;-70
2022/12/15 06:48:53;;;;;;;;;;;18.20;57.20;;;;;;5061881;28;1229;-70
2022/12/15 06:51:18;;;;;;;;;;;18.20;57.20;;;;;;5063636;28;1332;-70
2022/12/15 06:53:47;;;;;;;;;;;18.20;57.20;;;;;;5061849;28;916;-70
2022/12/15 06:56:17;;;;;;;;;;;18.20;57.20;;;;;;5062996;28;975;-69
2022/12/15 06:58:43;;;;;;;;;;;18.20;57.20;;;;;;5059000;28;1515;-71
2022/12/15 07:01:09;;;;;;;;;;;18.20;57.20;;;;;;5064490;28;1302;-69
2022/12/15 07:03:35;;;;;;;;;;;18.20;57.20;;;;;;5063541;28;1319;-70
2022/12/15 07:06:01;;;;;;;;;;;18.20;57.10;;;;;;5059832;28;1906;-70
2022/12/15 07:08:26;;;;;;;;;;;18.20;57.10;;;;;;5061227;28;895;-69
2022/12/15 07:10:52;;;;;;;;;;;18.20;57.10;;;;;;5059296;28;1637;-69
2022/12/15 07:13:17;;;;;;;;;;;18.20;57.10;;;;;;5058721;28;1277;-70
2022/12/15 07:15:43;;;;;;;;;;;18.20;57.10;;;;;;5062675;28;1208;-69
2022/12/15 07:18:10;;;;;;;;;;;18.30;57.10;;;;;;5062787;28;1252;-69
2022/12/15 07:20:36;;;;;;;;;;;18.30;57.10;;;;;;5060249;28;1240;-70
2022/12/15 07:23:06;;;;;;;;;;;18.30;57.10;;;;;;5062801;28;828;-70
2022/12/15 07:25:32;;;;;;;;;;;18.30;57.10;;;;;;5059640;28;1951;-71
2022/12/15 07:27:58;;;;;;;;;;;18.30;57.00;;;;;;5062281;28;906;-71
2022/12/15 07:30:23;;;;;;;;;;;18.30;57.60;;;;;;5055742;28;1902;-71
2022/12/15 07:32:49;;;;;;;;;;;18.30;57.00;;;;;;5058394;28;1011;-71
2022/12/15 07:35:14;;;;;;;;;;;18.30;57.00;;;;;;5060742;28;862;-70
2022/12/15 07:37:39;;;;;;;;;;;18.30;57.00;;;;;;5060573;28;938;-71
2022/12/15 07:40:05;;;;;;;;;;;18.30;56.90;;;;;;5060821;28;1278;-69
2022/12/15 07:42:31;;;;;;;;;;;18.30;57.00;;;;;;5066599;28;1026;-69
2022/12/15 07:44:56;;;;;;;;;;;18.30;56.90;;;;;;5064366;28;915;-72
2022/12/15 07:47:22;;;;;;;;;;;18.30;57.00;;;;;;5061716;28;1890;-69
2022/12/15 07:49:48;;;;;;;;;;;18.30;56.90;;;;;;5063020;28;1664;-68
2022/12/15 07:52:13;;;;;;;;;;;18.40;57.00;;;;;;5058385;28;1308;-68
2022/12/15 07:54:39;;;;;;;;;;;18.40;57.60;;;;;;5063999;28;887;-67
2022/12/15 07:57:06;;;;;;;;;;;18.40;57.00;;;;;;5057438;28;1707;-67
2022/12/15 07:59:34;;;;;;;;;;;18.30;56.90;;;;;;5060354;28;1132;-68
2022/12/15 08:02:00;;;;;;;;;;;18.30;56.90;;;;;;5059110;28;1264;-68
2022/12/15 08:04:26;;;;;;;;;;;18.30;57.00;;;;;;5060637;28;1450;-68
2022/12/15 08:06:55;;;;;;;;;;;18.30;57.00;;;;;;5058344;28;1956;-68
2022/12/15 08:09:20;;;;;;;;;;;18.30;57.00;;;;;;5062489;28;1038;-68
2022/12/15 08:11:45;;;;;;;;;;;18.30;57.00;;;;;;5058378;28;1336;-68
2022/12/15 08:14:11;;;;;;;;;;;18.30;57.00;;;;;;5058719;28;1486;-68
2022/12/15 08:16:37;;;;;;;;;;;18.30;57.00;;;;;;5068043;28;930;-68
2022/12/15 08:19:04;;;;;;;;;;;18.30;57.00;;;;;;5061241;28;970;-68
2022/12/15 08:21:30;;;;;;;;;;;18.30;57.10;;;;;;5064748;28;1228;-67
2022/12/15 08:23:56;;;;;;;;;;;18.30;57.10;;;;;;5062094;28;863;-68
2022/12/15 08:26:22;;;;;;;;;;;18.30;57.10;;;;;;5061531;28;1898;-67
2022/12/15 08:28:47;;;;;;;;;;;18.30;57.10;;;;;;5055392;28;923;-67
2022/12/15 08:31:14;;;;;;;;;;;18.20;57.10;;;;;;5064066;28;1241;-67
2022/12/15 08:33:39;;;;;;;;;;;18.20;57.10;;;;;;5062383;28;821;-67
2022/12/15 08:36:05;;;;;;;;;;;18.20;57.10;;;;;;5059765;28;914;-67
2022/12/15 08:38:32;;;;;;;;;;;18.20;57.10;;;;;;5060332;28;857;-68
2022/12/15 08:40:57;;;;;;;;;;;18.30;57.20;;;;;;5056941;28;1233;-67
2022/12/15 08:43:23;;;;;;;;;;;18.20;57.10;;;;;;5057259;28;1389;-67
2022/12/15 08:45:48;;;;;;;;;;;18.20;57.10;;;;;;5056787;28;1891;-68
2022/12/15 08:48:14;;;;;;;;;;;18.30;57.10;;;;;;5059798;28;1068;-67
2022/12/15 08:50:44;;;;;;;;;;;18.30;57.10;;;;;;5066773;28;1284;-68
2022/12/15 08:53:09;;;;;;;;;;;18.30;57.10;;;;;;5057298;28;916;-68
2022/12/15 08:55:35;;;;;;;;;;;18.30;57.00;;;;;;5063686;28;815;-68
2022/12/15 08:58:00;;;;;;;;;;;18.30;57.00;;;;;;5063453;28;907;-69
2022/12/15 09:00:26;;;;;;;;;;;18.30;57.00;;;;;;5057587;28;1273;-68
2022/12/15 09:02:51;;;;;;;;;;;18.30;57.00;;;;;;5060969;28;1025;-67
2022/12/15 09:05:17;;;;;;;;;;;18.30;57.00;;;;;;5060667;28;1906;-69
2022/12/15 09:07:42;;;;;;;;;;;18.30;57.00;;;;;;5057639;28;839;-67
2022/12/15 09:10:08;;;;;;;;;;;18.40;57.00;;;;;;5061480;28;1365;-68
2022/12/15 09:12:34;;;;;;;;;;;18.30;56.90;;;;;;5058272;28;1036;-69
2022/12/15 09:14:59;;;;;;;;;;;18.30;56.90;;;;;;5067250;28;893;-70
2022/12/15 09:17:25;;;;;;;;;;;18.40;57.00;;;;;;5060695;28;852;-69
2022/12/15 09:19:51;;;;;;;;;;;18.30;56.90;;;;;;5057817;28;863;-68
2022/12/15 09:22:17;;;;;;;;;;;18.30;56.80;;;;;;5056708;28;864;-67
2022/12/15 09:24:42;;;;;;;;;;;18.30;56.80;;;;;;5064550;28;1041;-68
2022/12/15 09:27:08;;;;;;;;;;;18.40;56.90;;;;;;5061521;28;1969;-68
2022/12/15 09:29:34;;;;;;;;;;;18.40;56.90;;;;;;5063167;28;2154;-70
2022/12/15 09:32:00;;;;;;;;;;;18.40;56.80;;;;;;5052548;28;4387;-71
2022/12/15 09:34:25;;;;;;;;;;;18.40;56.80;;;;;;5062228;28;1336;-70
2022/12/15 09:36:51;;;;;;;;;;;18.40;56.80;;;;;;5058838;28;951;-70
2022/12/15 09:39:16;;;;;;;;;;;18.40;56.80;;;;;;5055060;28;4420;-70
2022/12/15 09:41:42;;;;;;;;;;;18.40;56.80;;;;;;5041602;28;4694;-70
2022/12/15 09:44:18;;;;;;;;;;;18.40;56.80;;;;;;5043583;28;4964;-70
2022/12/15 09:47:05;;;;;;;;;;;18.40;56.80;;;;;;5058140;28;4546;-70
2022/12/15 09:49:45;;;;;;;;;;;18.40;56.80;;;;;;5064459;28;4644;-70
2022/12/15 09:52:12;;;;;;;;;;;18.40;56.70;;;;;;5057754;28;4712;-70
2022/12/15 09:54:37;;;;;;;;;;;18.40;56.70;;;;;;5059444;28;4364;-70
2022/12/15 09:57:07;;;;;;;;;;;18.40;56.70;;;;;;5049918;28;4400;-70
2022/12/15 09:59:45;;;;;;;;;;;18.40;56.70;;;;;;5066611;28;855;-70
2022/12/15 10:02:30;;;;;;;;;;;18.40;56.70;;;;;;5059568;28;1112;-70
2022/12/15 10:05:19;;;;;;;;;;;18.40;56.70;;;;;;5020569;28;1591;-70
2022/12/15 10:07:47;;;;;;;;;;;18.40;56.70;;;;;;5028784;28;1532;-70
2022/12/15 10:10:13;;;;;;;;;;;18.40;56.70;;;;;;5064518;28;1269;-70
2022/12/15 10:12:39;;;;;;;;;;;18.40;56.80;;;;;;5059504;28;1836;-71
2022/12/15 10:15:20;;;;;;;;;;;18.40;56.70;;;;;;5065897;28;1345;-70
2022/12/15 10:17:47;;;;;;;;;;;18.40;56.80;;;;;;5057702;28;1319;-69
2022/12/15 10:20:20;;;;;;;;;;;18.40;56.80;;;;;;5061134;28;1324;-70
2022/12/15 10:22:48;;;;;;;;;;;18.40;56.80;;;;;;5064755;28;1353;-71
2022/12/15 10:25:14;;;;;;;;;;;18.40;56.80;;;;;;5056571;28;1436;-71
2022/12/15 10:27:39;;;;;;;;;;;18.40;56.80;;;;;;5059320;28;1311;-71
2022/12/15 10:30:07;;;;;;;;;;;18.40;56.80;;;;;;5061597;28;1450;-71
2022/12/15 10:32:51;;;;;;;;;;;18.40;56.80;;;;;;5058002;28;856;-70
2022/12/15 10:35:21;;;;;;;;;;;18.40;56.80;;;;;;5064013;28;846;-71
2022/12/15 10:37:46;;;;;;;;;;;18.40;56.80;;;;;;5061337;28;938;-70
2022/12/15 10:40:19;;;;;;;;;;;18.40;56.80;;;;;;5061682;28;1264;-71
2022/12/15 10:42:48;;;;;;;;;;;18.40;56.80;;;;;;5062589;28;1065;-70
2022/12/15 10:45:28;;;;;;;;;;;18.40;56.80;;;;;;5060227;28;833;-70
2022/12/15 10:47:57;;;;;;;;;;;18.40;56.90;;;;;;5064629;28;914;-70
2022/12/15 10:50:23;;;;;;;;;;;18.40;56.80;;;;;;5058244;28;1323;-70
2022/12/15 10:52:49;;;;;;;;;;;18.30;56.80;;;;;;5061295;28;888;-70
2022/12/15 10:55:31;;;;;;;;;;;18.30;56.80;;;;;;5063227;28;1295;-70
2022/12/15 10:57:58;;;;;;;;;;;18.30;56.80;;;;;;5060818;28;824;-70
2022/12/15 11:00:26;;;;;;;;;;;18.30;56.80;;;;;;5063036;28;1271;-70
2022/12/15 11:02:51;;;;;;;;;;;18.30;56.80;;;;;;5060830;28;1037;-70
2022/12/15 11:05:17;;;;;;;;;;;18.30;56.80;;;;;;5062684;28;1955;-70
2022/12/15 11:07:43;;;;;;;;;;;18.30;56.80;;;;;;5063623;28;1061;-70
2022/12/15 11:10:14;;;;;;;;;;;18.30;56.80;;;;;;5062489;28;1295;-70
2022/12/15 11:12:51;;;;;;;;;;;18.30;56.80;;;;;;5063792;28;903;-70
2022/12/15 11:15:22;;;;;;;;;;;18.30;56.80;;;;;;5061193;28;851;-70
2022/12/15 11:17:58;;;;;;;;;;;18.30;56.80;;;;;;5060683;28;804;-70
2022/12/15 11:20:29;;;;;;;;;;;18.30;56.90;;;;;;5064123;28;1256;-70
2022/12/15 11:22:56;;;;;;;;;;;18.30;56.90;;;;;;5069568;28;863;-70
2022/12/15 11:25:38;;;;;;;;;;;18.30;56.90;;;;;;5062471;28;1897;-70
2022/12/15 11:28:10;;;;;;;;;;;18.30;56.90;;;;;;5064053;28;927;-70
2022/12/15 11:30:41;;;;;;;;;;;18.30;56.90;;;;;;5061101;28;1345;-70
2022/12/15 11:33:07;;;;;;;;;;;18.30;56.90;;;;;;5058798;28;990;-70
2022/12/15 11:35:39;;;;;;;;;;;18.30;56.90;;;;;;5061234;28;1787;-70
2022/12/15 11:38:12;;;;;;;;;;;18.30;56.90;;;;;;5063392;28;892;-70
2022/12/15 11:40:38;;;;;;;;;;;18.30;56.90;;;;;;5058981;28;1271;-70
2022/12/15 11:43:25;;;;;;;;;;;18.30;56.90;;;;;;5062682;28;937;-70
2022/12/15 11:46:05;;;;;;;;;;;18.30;56.90;;;;;;5061584;28;1943;-70
2022/12/15 11:48:40;;;;;;;;;;;18.30;56.90;;;;;;5062456;28;828;-70
2022/12/15 11:51:10;;;;;;;;;;;18.30;57.10;;;;;;5044953;28;1358;-69
2022/12/15 11:53:43;;;;;;;;;;;18.30;56.90;;;;;;5062771;28;1053;-69
2022/12/15 11:56:15;;;;;;;;;;;18.30;56.90;;;;;;5059484;28;1026;-69
2022/12/15 11:58:49;;;;;;;;;;;18.40;57.00;;;;;;5060566;28;1006;-69
2022/12/15 12:01:30;;;;;;;;;;;18.30;56.90;;;;;;5060876;28;1286;-69
2022/12/15 12:04:13;;;;;;;;;;;18.30;56.80;;;;;;5056307;28;1498;-69
2022/12/15 12:07:05;;;;;;;;;;;18.30;56.80;;;;;;5063612;28;2007;-70
2022/12/15 12:09:40;;;;;;;;;;;18.40;56.90;;;;;;5025096;28;1441;-70
2022/12/15 12:12:18;;;;;;;;;;;18.30;56.80;;;;;;5062603;28;1996;-68
2022/12/15 12:14:49;;;;;;;;;;;18.30;56.80;;;;;;5061475;28;1467;-68
2022/12/15 12:17:33;;;;;;;;;;;18.30;56.80;;;;;;5061095;28;943;-68
2022/12/15 12:20:00;;;;;;;;;;;18.30;56.80;;;;;;5064982;28;1349;-67
2022/12/15 12:22:36;;;;;;;;;;;18.30;56.80;;;;;;5058949;28;1164;-67
2022/12/15 12:25:04;;;;;;;;;;;18.30;56.80;;;;;;5058235;28;1314;-68
2022/12/15 12:27:30;;;;;;;;;;;18.40;56.80;;;;;;5060173;28;1906;-68
2022/12/15 12:30:10;;;;;;;;;;;18.30;56.80;;;;;;5057666;28;1418;-68
2022/12/15 12:32:35;;;;;;;;;;;18.40;56.90;;;;;;5063827;28;1564;-68
2022/12/15 12:35:10;;;;;;;;;;;18.40;56.90;;;;;;5059307;28;1652;-68
2022/12/15 12:37:35;;;;;;;;;;;18.30;56.80;;;;;;5057693;28;1369;-69
2022/12/15 12:40:04;;;;;;;;;;;18.30;56.80;;;;;;5061627;28;1523;-68
2022/12/15 12:42:34;;;;;;;;;;;18.30;56.90;;;;;;5063028;28;1424;-67
2022/12/15 12:45:00;;;;;;;;;;;18.30;56.90;;;;;;5061264;28;912;-67
2022/12/15 12:47:27;;;;;;;;;;;18.30;56.90;;;;;;5058980;28;1906;-67
2022/12/15 12:49:53;;;;;;;;;;;18.30;56.90;;;;;;5059298;28;1375;-68
2022/12/15 12:52:21;;;;;;;;;;;18.30;57.00;;;;;;5066636;28;831;-68
2022/12/15 12:54:50;;;;;;;;;;;18.20;57.00;;;;;;5066366;28;1088;-67
2022/12/15 12:57:19;;;;;;;;;;;18.20;57.00;;;;;;5043926;28;1512;-68
2022/12/15 12:59:51;;;;;;;;;;;18.20;57.00;;;;;;5058089;28;981;-67
2022/12/15 13:02:20;;;;;;;;;;;18.20;57.10;;;;;;5059310;28;1623;-67
2022/12/15 13:04:48;;;;;;;;;;;18.20;57.10;;;;;;5064073;28;1058;-67
2022/12/15 13:07:31;;;;;;;;;;;18.20;57.10;;;;;;5056884;28;1976;-68
2022/12/15 13:10:01;;;;;;;;;;;18.20;57.10;;;;;;5044313;28;1269;-68
2022/12/15 13:12:45;;;;;;;;;;;18.20;57.20;;;;;;5058528;28;942;-68
2022/12/15 13:15:23;;;;;;;;;;;18.20;57.30;;;;;;5062678;28;776;-67
2022/12/15 13:17:49;;;;;;;;;;;18.20;57.30;;;;;;5060050;28;859;-68
2022/12/15 13:20:17;;;;;;;;;;;18.20;57.30;;;;;;5063511;28;1346;-68
2022/12/15 13:22:42;;;;;;;;;;;18.20;57.30;;;;;;5060294;28;903;-68
2022/12/15 13:25:25;;;;;;;;;;;18.10;57.20;;;;;;5062189;28;844;-68
2022/12/15 13:27:50;;;;;;;;;;;18.10;57.30;;;;;;5067456;28;958;-68
2022/12/15 13:30:16;;;;;;;;;;;18.10;57.30;;;;;;5061707;28;1363;-68
2022/12/15 13:33:05;;;;;;;;;;;18.10;57.40;;;;;;5060621;28;829;-68
2022/12/15 13:35:30;;;;;;;;;;;18.10;57.40;;;;;;5046900;28;1256;-68
2022/12/15 13:37:57;;;;;;;;;;;18.10;57.40;;;;;;5056996;28;1030;-67
2022/12/15 13:40:23;;;;;;;;;;;18.10;57.40;;;;;;5060354;28;1344;-67
2022/12/15 13:43:11;;;;;;;;;;;18.10;58.10;;;;;;5062338;28;868;-67
2022/12/15 13:45:52;;;;;;;;;;;18.10;57.50;;;;;;5052069;28;1895;-67
2022/12/15 13:48:24;;;;;;;;;;;18.10;57.40;;;;;;5069565;28;828;-67
2022/12/15 13:51:13;;;;;;;;;;;18.10;57.40;;;;;;5062095;28;1927;-67
2022/12/15 13:53:41;;;;;;;;;;;18.10;57.40;;;;;;5051710;28;2251;-69
2022/12/15 13:56:09;;;;;;;;;;;18.10;57.30;;;;;;5060028;28;1143;-70
2022/12/15 13:58:42;;;;;;;;;;;18.10;57.30;;;;;;5060790;28;1252;-68
2022/12/15 14:01:17;;;;;;;;;;;18.20;57.30;;;;;;5058680;28;1305;-69
2022/12/15 14:03:55;;;;;;;;;;;18.20;57.30;;;;;;5062799;28;1525;-69
2022/12/15 14:06:21;;;;;;;;;;;18.20;57.30;;;;;;5059968;28;1918;-68
2022/12/15 14:08:46;;;;;;;;;;;18.20;57.20;;;;;;5063947;28;1441;-68
2022/12/15 14:11:15;;;;;;;;;;;18.20;57.20;;;;;;5058541;28;1411;-69
2022/12/15 14:13:40;;;;;;;;;;;18.20;57.10;;;;;;5067282;28;1411;-71
2022/12/15 14:16:14;;;;;;;;;;;18.20;57.10;;;;;;5066377;28;1553;-70
2022/12/15 14:18:40;;;;;;;;;;;18.20;57.10;;;;;;5060511;28;1469;-69
2022/12/15 14:21:07;;;;;;;;;;;18.20;57.00;;;;;;5060362;28;1638;-69
2022/12/15 14:23:39;;;;;;;;;;;18.20;57.00;;;;;;5060666;28;1437;-68
2022/12/15 14:26:05;;;;;;;;;;;18.20;57.00;;;;;;5064850;28;1906;-68
2022/12/15 14:28:32;;;;;;;;;;;18.20;57.00;;;;;;5074086;28;1343;-68
2022/12/15 14:30:59;;;;;;;;;;;18.30;57.00;;;;;;5064070;28;1334;-68
2022/12/15 14:33:24;;;;;;;;;;;18.20;56.90;;;;;;5062128;28;808;-68
2022/12/15 14:35:50;;;;;;;;;;;18.30;57.00;;;;;;5064698;28;840;-68
2022/12/15 14:38:36;;;;;;;;;;;18.30;57.00;;;;;;5062028;28;867;-69
2022/12/15 14:41:01;;;;;;;;;;;18.30;56.90;;;;;;5050442;28;1369;-68
2022/12/15 14:43:28;;;;;;;;;;;18.30;56.90;;;;;;5062222;28;780;-68
2022/12/15 14:45:55;;;;;;;;;;;18.30;57.00;;;;;;5063481;28;1973;-68
2022/12/15 14:48:24;;;;;;;;;;;18.30;56.90;;;;;;5061540;28;828;-68
2022/12/15 14:50:49;;;;;;;;;;;18.30;57.00;;;;;;5061061;28;1563;-67
2022/12/15 14:53:16;;;;;;;;;;;18.30;56.90;;;;;;5065533;28;879;-68
2022/12/15 14:55:41;;;;;;;;;;;18.30;57.00;;;;;;5064144;28;926;-68
2022/12/15 14:58:27;;;;;;;;;;;18.20;56.90;;;;;;5064907;28;1124;-68
2022/12/15 15:00:53;;;;;;;;;;;18.30;57.00;;;;;;5059508;28;1268;-68
2022/12/15 15:03:24;;;;;;;;;;;18.20;56.90;;;;;;5066963;28;1458;-69
2022/12/15 15:05:49;;;;;;;;;;;18.30;57.00;;;;;;5061142;28;1981;-67
2022/12/15 15:08:18;;;;;;;;;;;18.20;57.00;;;;;;5059955;28;871;-69
2022/12/15 15:10:43;;;;;;;;;;;18.20;57.00;;;;;;5062451;28;1354;-69
2022/12/15 15:13:15;;;;;;;;;;;18.20;57.00;;;;;;5060944;28;888;-73
2022/12/15 15:15:40;;;;;;;;;;;18.20;57.00;;;;;;5069034;28;958;-71
2022/12/15 15:18:05;;;;;;;;;;;18.20;57.00;;;;;;5064192;28;769;-71
2022/12/15 15:20:33;;;;;;;;;;;18.20;57.10;;;;;;5062227;28;1340;-71
2022/12/15 15:23:17;;;;;;;;;;;18.20;57.10;;;;;;5063231;28;824;-70
2022/12/15 15:25:49;;;;;;;;;;;18.20;57.20;;;;;;5063383;28;1914;-70
2022/12/15 15:28:18;;;;;;;;;;;18.20;57.20;;;;;;5059834;28;817;-69
2022/12/15 15:30:44;;;;;;;;;;;18.10;57.10;;;;;;5053096;28;4323;-71
2022/12/15 15:33:12;;;;;;;;;;;18.10;57.10;;;;;;5063825;28;3203;-71
2022/12/15 15:35:37;;;;;;;;;;;18.20;57.20;;;;;;5065255;28;812;-70
2022/12/15 15:38:04;;;;;;;;;;;18.10;57.30;;;;;;5062210;28;1030;-70
2022/12/15 15:40:29;;;;;;;;;;;18.10;57.30;;;;;;5061674;28;1413;-69
2022/12/15 15:42:55;;;;;;;;;;;18.10;57.30;;;;;;5064306;28;812;-69
2022/12/15 15:45:20;;;;;;;;;;;18.10;57.30;;;;;;5065016;28;893;-70
2022/12/15 15:47:46;;;;;;;;;;;18.10;57.30;;;;;;5061913;28;1990;-68
2022/12/15 15:50:13;;;;;;;;;;;18.10;57.40;;;;;;5061752;28;1361;-67
2022/12/15 15:52:38;;;;;;;;;;;18.10;57.40;;;;;;5061477;28;816;-67
2022/12/15 15:55:04;;;;;;;;;;;18.10;57.40;;;;;;5061284;28;872;-66
2022/12/15 15:57:29;;;;;;;;;;;18.10;57.40;;;;;;5063167;28;1055;-67
2022/12/15 15:59:55;;;;;;;;;;;18.10;57.40;;;;;;5061073;28;1378;-67
2022/12/15 16:02:21;;;;;;;;;;;18.10;57.50;;;;;;5060533;28;1288;-69
2022/12/15 16:04:46;;;;;;;;;;;18.10;57.50;;;;;;5059335;28;1432;-69
2022/12/15 16:07:17;;;;;;;;;;;18.00;57.50;;;;;;5058239;28;1906;-69
2022/12/15 16:09:42;;;;;;;;;;;18.00;57.50;;;;;;5061009;28;906;-70
2022/12/15 16:12:10;;;;;;;;;;;18.00;57.50;;;;;;5065452;28;1296;-69
2022/12/15 16:14:36;;;;;;;;;;;18.00;57.50;;;;;;5057676;28;1624;-69
2022/12/15 16:17:01;;;;;;;;;;;18.00;57.50;;;;;;5062929;28;847;-68
2022/12/15 16:19:27;;;;;;;;;;;18.00;57.60;;;;;;5062389;28;884;-69
2022/12/15 16:21:52;;;;;;;;;;;18.00;57.60;;;;;;5060142;28;1268;-69
2022/12/15 16:24:18;;;;;;;;;;;18.00;57.60;;;;;;5068025;28;1482;-69
2022/12/15 16:26:46;;;;;;;;;;;18.00;57.60;;;;;;5059079;28;1957;-68
2022/12/15 16:29:12;;;;;;;;;;;18.00;57.60;;;;;;5060624;28;988;-69
2022/12/15 16:31:43;;;;;;;;;;;18.00;57.60;;;;;;5062127;28;1329;-69
2022/12/15 16:34:09;;;;;;;;;;;18.00;57.70;;;;;;5061805;28;908;-68
2022/12/15 16:36:35;;;;;;;;;;;18.00;57.60;;;;;;5060597;28;935;-69
2022/12/15 16:39:00;;;;;;;;;;;18.00;57.60;;;;;;5060980;28;924;-69
2022/12/15 16:41:26;;;;;;;;;;;18.00;57.60;;;;;;5057261;28;1248;-69
2022/12/15 16:43:52;;;;;;;;;;;18.00;57.60;;;;;;5064164;28;828;-70
2022/12/15 16:46:19;;;;;;;;;;;18.00;57.60;;;;;;5063116;28;1947;-69
2022/12/15 16:48:44;;;;;;;;;;;18.00;57.60;;;;;;5062785;28;808;-70
2022/12/15 16:51:12;;;;;;;;;;;18.00;57.60;;;;;;5059784;28;1793;-71
2022/12/15 16:53:38;;;;;;;;;;;18.00;57.60;;;;;;5056535;28;911;-70
2022/12/15 16:56:04;;;;;;;;;;;18.00;57.60;;;;;;5063060;28;896;-70
2022/12/15 16:58:30;;;;;;;;;;;18.00;57.60;;;;;;5059746;28;961;-70
2022/12/15 17:00:55;;;;;;;;;;;18.00;57.60;;;;;;5057684;28;1363;-70